Time;durP1;ratioP1;P1;durP2;ratioP2;P2;SDS_P1;SDS_P2;PMS_P1;PMS_P2;Temp;Humidity;BMP_temperature;BMP_pressure;BME280_temperature;BME280_humidity;BME280_pressure;Samples;Min_cycle;Max_cycle;Signal;HPM_P1;HPM_P2
2024/01/26 00:02:01;;;;;;;22.00;4.50;;;;;;;4.82;100.00;101259.67;220618;1264;140450;-87
2024/01/26 00:07:01;;;;;;;15.80;3.70;;;;;;;4.82;100.00;101264.07;220934;1264;139076;-89
2024/01/26 00:12:02;;;;;;;15.70;4.20;;;;;;;4.82;100.00;101265.13;220415;1263;140041;-87
2024/01/26 00:17:03;;;;;;;19.50;4.30;;;;;;;4.81;100.00;101266.18;220942;1264;139109;-87
2024/01/26 00:22:03;;;;;;;23.80;4.90;;;;;;;4.82;100.00;101273.84;221059;1264;139525;-87
2024/01/26 00:27:03;;;;;;;16.80;4.50;;;;;;;4.82;100.00;101277.58;222506;1264;138762;-87
2024/01/26 00:32:04;;;;;;;16.70;3.70;;;;;;;4.81;100.00;101281.89;220550;1264;139677;-87
2024/01/26 00:37:04;;;;;;;19.30;6.30;;;;;;;4.80;100.00;101283.89;221171;1264;138932;-86
2024/01/26 00:42:05;;;;;;;21.10;4.70;;;;;;;4.79;100.00;101290.08;220552;1264;139944;-87
2024/01/26 00:47:06;;;;;;;15.30;4.40;;;;;;;4.79;100.00;101291.93;221048;1264;139036;-86
2024/01/26 00:52:06;;;;;;;18.50;6.00;;;;;;;4.79;100.00;101294.05;220807;1264;140707;-86
2024/01/26 00:57:07;;;;;;;23.10;6.20;;;;;;;4.79;100.00;101300.05;221120;1264;139000;-87
2024/01/26 01:02:08;;;;;;;17.80;5.20;;;;;;;4.79;100.00;101301.53;221075;1264;139985;-87
2024/01/26 01:07:08;;;;;;;21.70;5.70;;;;;;;4.79;100.00;101305.67;221858;1267;138623;-87
2024/01/26 01:12:09;;;;;;;18.90;5.60;;;;;;;4.81;100.00;101314.34;221140;1265;140092;-88
2024/01/26 01:17:11;;;;;;;19.80;6.90;;;;;;;4.80;100.00;101316.13;221463;1264;138745;-88
2024/01/26 01:22:11;;;;;;;24.80;7.90;;;;;;;4.79;100.00;101319.20;221096;1264;140024;-87
2024/01/26 01:27:11;;;;;;;19.10;7.70;;;;;;;4.76;100.00;101321.03;221532;1264;139378;-88
2024/01/26 01:32:12;;;;;;;28.20;9.20;;;;;;;4.74;100.00;101324.27;221103;1263;140071;-88
2024/01/26 01:37:13;;;;;;;26.30;8.30;;;;;;;4.74;100.00;101334.88;221424;1264;138627;-88
2024/01/26 01:42:16;;;;;;;25.40;8.60;;;;;;;4.74;100.00;101337.67;220598;1264;140523;-88
2024/01/26 01:47:17;;;;;;;24.80;9.40;;;;;;;4.73;100.00;101336.98;221202;1267;138680;-88
2024/01/26 01:52:17;;;;;;;27.40;9.70;;;;;;;4.71;100.00;101335.19;220933;1263;139522;-88
2024/01/26 01:57:20;;;;;;;25.70;8.60;;;;;;;4.70;100.00;101330.63;221134;1264;138783;-87
2024/01/26 02:02:23;;;;;;;25.40;8.70;;;;;;;4.69;100.00;101329.25;220406;1264;139899;-87
2024/01/26 02:07:25;;;;;;;33.00;9.60;;;;;;;4.68;100.00;101327.80;221615;1264;138998;-89
2024/01/26 02:12:25;;;;;;;22.60;8.40;;;;;;;4.66;100.00;101328.25;221399;1264;139637;-88
2024/01/26 02:17:33;;;;;;;19.80;7.40;;;;;;;4.64;100.00;101329.23;221015;1264;139521;-88
2024/01/26 02:22:33;;;;;;;25.50;8.20;;;;;;;4.62;100.00;101326.19;220669;1264;139877;-88
2024/01/26 02:27:35;;;;;;;25.90;8.20;;;;;;;4.63;100.00;101327.60;221171;1264;98236;-88
2024/01/26 02:32:35;;;;;;;25.10;7.90;;;;;;;4.61;100.00;101323.92;220511;1264;139923;-88
2024/01/26 02:37:36;;;;;;;22.00;6.50;;;;;;;4.60;100.00;101323.32;220998;1265;138619;-87
2024/01/26 02:42:36;;;;;;;23.50;6.90;;;;;;;4.58;100.00;101324.81;220470;1265;139944;-88
2024/01/26 02:47:37;;;;;;;21.30;6.50;;;;;;;4.57;100.00;101319.79;220989;1264;138744;-87
2024/01/26 02:52:37;;;;;;;21.70;7.50;;;;;;;4.57;100.00;101326.32;220508;1268;139826;-88
2024/01/26 02:57:38;;;;;;;20.70;6.00;;;;;;;4.57;100.00;101331.52;221351;1264;97732;-88
2024/01/26 03:02:39;;;;;;;23.60;6.10;;;;;;;4.55;100.00;101333.85;220794;1264;138881;-88
2024/01/26 03:07:39;;;;;;;21.20;6.90;;;;;;;4.53;100.00;101330.23;220934;1264;138961;-88
2024/01/26 03:12:40;;;;;;;25.00;5.30;;;;;;;4.52;100.00;101339.99;220614;1264;139750;-87
2024/01/26 03:17:40;;;;;;;18.20;5.90;;;;;;;4.51;100.00;101350.64;221159;1264;139053;-87
2024/01/26 03:22:43;;;;;;;18.80;5.70;;;;;;;4.48;100.00;101358.30;220494;1264;139820;-87
2024/01/26 03:27:43;;;;;;;17.90;5.50;;;;;;;4.46;100.00;101354.70;221182;1264;97652;-88
2024/01/26 03:32:44;;;;;;;24.30;5.30;;;;;;;4.43;100.00;101353.98;220345;1263;139540;-87
2024/01/26 03:37:44;;;;;;;19.40;4.60;;;;;;;4.41;100.00;101349.44;221010;1264;139373;-87
2024/01/26 03:42:44;;;;;;;18.80;4.50;;;;;;;4.39;100.00;101349.23;220606;1264;140236;-87
2024/01/26 03:47:45;;;;;;;20.30;4.00;;;;;;;4.37;100.00;101349.20;221156;1264;138740;-88
2024/01/26 03:52:45;;;;;;;23.70;4.40;;;;;;;4.36;100.00;101346.59;221584;1263;140086;-87
2024/01/26 03:57:46;;;;;;;16.20;3.80;;;;;;;4.38;100.00;101343.53;222431;1264;96594;-88
2024/01/26 04:02:46;;;;;;;17.90;4.00;;;;;;;4.37;100.00;101347.11;220712;1264;140260;-87
2024/01/26 04:07:46;;;;;;;14.00;3.10;;;;;;;4.35;100.00;101350.77;220891;1264;139144;-87
2024/01/26 04:12:47;;;;;;;20.10;3.90;;;;;;;4.37;100.00;101352.43;220472;1264;139443;-88
2024/01/26 04:17:47;;;;;;;17.20;4.30;;;;;;;4.39;100.00;101345.65;220957;1264;138642;-87
2024/01/26 04:22:48;;;;;;;23.00;4.50;;;;;;;4.39;100.00;101341.67;220515;1264;139500;-87
2024/01/26 04:27:48;;;;;;;21.30;4.60;;;;;;;4.37;100.00;101339.80;220897;1265;97671;-88
2024/01/26 04:32:49;;;;;;;20.90;5.20;;;;;;;4.35;100.00;101335.75;220406;1264;140317;-87
2024/01/26 04:37:49;;;;;;;20.80;4.90;;;;;;;4.26;100.00;101331.66;220970;1264;139679;-88
2024/01/26 04:42:49;;;;;;;21.70;5.30;;;;;;;4.22;100.00;101327.13;220429;1264;140541;-87
2024/01/26 04:47:50;;;;;;;22.10;5.20;;;;;;;4.22;100.00;101331.10;220888;1264;138778;-87
2024/01/26 04:52:52;;;;;;;18.40;4.40;;;;;;;4.19;100.00;101324.96;220388;1264;139453;-87
2024/01/26 04:57:52;;;;;;;21.00;4.90;;;;;;;4.12;100.00;101326.14;221366;1264;97787;-87
2024/01/26 05:02:53;;;;;;;33.00;4.90;;;;;;;4.13;100.00;101326.34;220942;1266;139852;-87
2024/01/26 05:07:54;;;;;;;23.30;4.50;;;;;;;4.09;100.00;101324.37;221650;1264;138697;-86
2024/01/26 05:12:54;;;;;;;15.40;4.20;;;;;;;4.08;100.00;101332.64;221200;1264;140901;-87
2024/01/26 05:17:55;;;;;;;23.20;5.80;;;;;;;4.09;100.00;101331.60;221399;1264;138708;-88
2024/01/26 05:22:55;;;;;;;22.90;5.60;;;;;;;4.09;100.00;101332.11;220660;1267;140000;-87
2024/01/26 05:27:56;;;;;;;21.30;4.80;;;;;;;4.04;100.00;101331.05;221874;1266;97646;-87
2024/01/26 05:32:56;;;;;;;16.90;4.80;;;;;;;4.04;100.00;101328.23;221195;1264;139609;-87
2024/01/26 05:37:56;;;;;;;18.30;5.10;;;;;;;4.04;100.00;101333.92;222650;1266;139132;-88
2024/01/26 05:42:57;;;;;;;20.20;5.10;;;;;;;4.05;100.00;101338.46;220678;1264;139335;-87
2024/01/26 05:47:57;;;;;;;18.40;4.20;;;;;;;4.07;100.00;101336.24;220957;1264;138886;-88
2024/01/26 05:52:58;;;;;;;22.80;4.30;;;;;;;4.06;100.00;101329.96;220391;1264;139909;-88
2024/01/26 05:57:58;;;;;;;18.50;4.00;;;;;;;4.06;100.00;101336.98;221611;1265;97905;-88
2024/01/26 06:02:59;;;;;;;11.70;2.90;;;;;;;4.07;100.00;101336.30;220728;1263;139470;-88
2024/01/26 06:07:59;;;;;;;14.40;3.90;;;;;;;4.09;100.00;101331.19;221151;1264;139299;-87
2024/01/26 06:13:00;;;;;;;11.40;3.70;;;;;;;4.11;100.00;101327.90;220648;1264;139088;-88
2024/01/26 06:18:00;;;;;;;16.20;3.40;;;;;;;4.12;100.00;101326.79;221089;1265;138594;-88
2024/01/26 06:23:01;;;;;;;11.30;3.60;;;;;;;4.15;100.00;101328.88;220504;1267;139960;-88
2024/01/26 06:28:01;;;;;;;19.50;3.70;;;;;;;4.15;100.00;101320.93;221340;1266;97134;-88
2024/01/26 06:33:02;;;;;;;21.00;3.50;;;;;;;4.09;100.00;101314.50;220749;1264;139478;-88
2024/01/26 06:38:03;;;;;;;16.20;3.50;;;;;;;4.11;100.00;101316.30;221196;1264;138991;-87
2024/01/26 06:43:06;;;;;;;16.00;3.20;;;;;;;4.12;100.00;101320.36;220638;1267;139588;-88
2024/01/26 06:48:09;;;;;;;12.00;3.20;;;;;;;4.09;100.00;101322.58;221165;1264;138749;-88
2024/01/26 06:53:10;;;;;;;16.70;4.00;;;;;;;4.08;100.00;101329.30;220557;1266;139836;-87
2024/01/26 06:58:10;;;;;;;17.80;6.50;;;;;;;4.10;100.00;101332.84;221361;1264;96621;-88
2024/01/26 07:03:11;;;;;;;34.00;19.10;;;;;;;4.11;100.00;101330.31;220966;1265;139456;-86
2024/01/26 07:08:11;;;;;;;29.20;13.50;;;;;;;4.12;100.00;101334.27;221227;1264;139202;-87
2024/01/26 07:13:12;;;;;;;24.20;9.30;;;;;;;4.13;100.00;101330.73;220661;1267;139794;-87
2024/01/26 07:18:12;;;;;;;22.10;9.90;;;;;;;4.14;100.00;101323.59;221365;1265;138657;-88
2024/01/26 07:23:13;;;;;;;20.10;10.80;;;;;;;4.12;100.00;101316.23;222028;1264;140341;-87
2024/01/26 07:28:13;;;;;;;24.20;6.40;;;;;;;4.14;100.00;101306.87;221459;1263;97756;-88
2024/01/26 07:33:14;;;;;;;35.40;17.40;;;;;;;4.15;100.00;101307.16;220896;1263;139480;-87
2024/01/26 07:38:15;;;;;;;19.60;10.30;;;;;;;4.16;100.00;101306.86;221304;1266;139205;-87
2024/01/26 07:43:15;;;;;;;28.90;8.80;;;;;;;4.14;100.00;101310.23;221054;1264;139982;-87
2024/01/26 07:48:16;;;;;;;30.80;9.20;;;;;;;4.11;100.00;101307.97;221193;1264;138627;-86
2024/01/26 07:53:17;;;;;;;18.00;6.80;;;;;;;4.08;100.00;101303.21;220647;1265;140577;-87
2024/01/26 07:58:17;;;;;;;26.70;7.40;;;;;;;4.05;100.00;101290.42;221304;1265;96741;-87
2024/01/26 08:03:18;;;;;;;29.80;10.00;;;;;;;4.01;100.00;101283.11;220695;1266;139578;-87
2024/01/26 08:08:18;;;;;;;34.50;10.20;;;;;;;3.99;100.00;101274.98;221080;1264;139516;-87
2024/01/26 08:13:18;;;;;;;34.60;10.90;;;;;;;4.01;100.00;101272.44;220537;1263;139584;-86
2024/01/26 08:18:19;;;;;;;41.30;11.50;;;;;;;4.03;100.00;101265.42;221193;1266;139707;-87
2024/01/26 08:23:19;;;;;;;43.20;11.10;;;;;;;4.07;100.00;101258.94;220502;1266;140157;-86
2024/01/26 08:28:20;;;;;;;36.40;10.60;;;;;;;4.12;100.00;101257.33;221308;1264;96551;-87
2024/01/26 08:33:22;;;;;;;30.40;9.90;;;;;;;4.18;100.00;101259.95;220700;1263;139588;-85
2024/01/26 08:38:22;;;;;;;28.30;9.00;;;;;;;4.29;100.00;101248.05;221255;1264;138536;-89
2024/01/26 08:43:24;;;;;;;29.60;10.00;;;;;;;4.40;100.00;101240.45;220695;1264;139652;-91
2024/01/26 08:48:25;;;;;;;27.50;9.10;;;;;;;4.55;100.00;101244.06;221083;1266;139271;-92
2024/01/26 08:53:26;;;;;;;33.00;10.40;;;;;;;4.68;100.00;101237.73;221117;1265;140698;-91
2024/01/26 08:58:26;;;;;;;23.80;9.20;;;;;;;4.77;100.00;101230.23;222032;1266;138860;-90
2024/01/26 09:03:27;;;;;;;29.00;9.70;;;;;;;4.88;100.00;101228.23;221890;1265;139395;-91
2024/01/26 09:08:27;;;;;;;26.60;9.30;;;;;;;4.97;100.00;101229.75;222547;1266;139248;-91
2024/01/26 09:13:28;;;;;;;30.80;10.50;;;;;;;5.04;100.00;101222.59;220845;1266;139711;-91
2024/01/26 09:18:28;;;;;;;28.90;8.50;;;;;;;5.12;100.00;101217.14;221165;1266;138824;-90
2024/01/26 09:23:28;;;;;;;30.70;9.40;;;;;;;5.22;100.00;101204.84;220494;1266;139871;-89
2024/01/26 09:28:29;;;;;;;32.40;9.10;;;;;;;5.37;100.00;101195.38;221147;1264;139867;-89
2024/01/26 09:33:30;;;;;;;28.60;8.40;;;;;;;5.62;100.00;101187.97;220626;1268;139559;-92
2024/01/26 09:38:30;;;;;;;23.80;8.20;;;;;;;5.79;100.00;101186.79;220962;1266;139056;-89
2024/01/26 09:43:31;;;;;;;26.50;9.20;;;;;;;5.84;100.00;101188.88;220551;1266;139709;-91
2024/01/26 09:48:33;;;;;;;31.80;9.80;;;;;;;5.79;100.00;101187.48;220936;1265;138667;-91
2024/01/26 09:53:35;;;;;;;34.70;9.60;;;;;;;5.73;100.00;101172.45;220450;1266;140084;-90
2024/01/26 09:58:35;;;;;;;27.60;10.40;;;;;;;5.71;100.00;101160.35;221639;1264;139637;-91
2024/01/26 10:03:35;;;;;;;27.50;9.30;;;;;;;5.68;100.00;101157.18;220627;1264;139695;-90
2024/01/26 10:08:40;;;;;;;33.60;10.10;;;;;;;5.71;100.00;101145.05;221297;1266;138510;-89
2024/01/26 10:13:40;;;;;;;29.30;11.40;;;;;;;5.68;100.00;101145.04;220830;1267;139948;-92
2024/01/26 10:18:43;;;;;;;31.50;10.00;;;;;;;5.65;100.00;101130.92;221543;1265;138987;-90
2024/01/26 10:23:44;;;;;;;31.60;11.40;;;;;;;5.68;100.00;101114.13;221197;1264;340634;-93
2024/01/26 10:28:46;;;;;;;35.90;11.50;;;;;;;5.72;100.00;101103.15;221794;1264;138814;-92
2024/01/26 10:33:50;;;;;;;31.50;10.00;;;;;;;5.79;100.00;101089.02;220835;1264;139927;-90
2024/01/26 10:38:51;;;;;;;24.00;8.20;;;;;;;5.83;100.00;101087.62;221114;1266;139059;-93
2024/01/26 10:43:55;;;;;;;24.50;8.80;;;;;;;5.82;100.00;101087.42;220934;1267;139717;-90
2024/01/26 10:48:56;;;;;;;26.50;8.70;;;;;;;5.81;100.00;101079.02;222037;1268;139104;-88
2024/01/26 10:53:58;;;;;;;29.10;8.30;;;;;;;5.88;100.00;101066.75;221914;1266;139497;-92
2024/01/26 10:58:59;;;;;;;28.20;9.70;;;;;;;5.95;100.00;101058.70;222163;1264;138746;-91
2024/01/26 11:04:03;;;;;;;30.90;11.30;;;;;;;6.00;100.00;101043.48;220701;1264;139478;-92
2024/01/26 11:09:08;;;;;;;26.60;7.90;;;;;;;6.07;100.00;101007.95;220966;1264;139806;-92
2024/01/26 11:14:12;;;;;;;18.80;8.00;;;;;;;6.10;100.00;100996.09;220571;1269;139264;-92
2024/01/26 11:19:22;;;;;;;25.30;8.20;;;;;;;6.16;100.00;100980.02;220971;1266;139183;-91
2024/01/26 11:24:24;;;;;;;36.20;11.30;;;;;;;6.21;100.00;100973.56;220557;1263;139782;-92
2024/01/26 11:29:36;;;;;;;29.50;8.70;;;;;;;6.25;100.00;100961.91;221067;1264;141123;-91
2024/01/26 11:34:37;;;;;;;32.10;10.00;;;;;;;6.25;100.00;100941.76;220573;1265;139780;-92
2024/01/26 11:39:38;;;;;;;32.30;10.10;;;;;;;6.23;100.00;100917.73;221197;1267;96756;-90
2024/01/26 11:44:42;;;;;;;33.30;11.40;;;;;;;6.24;100.00;100900.10;220601;1264;139357;-90
2024/01/26 11:49:44;;;;;;;26.10;9.40;;;;;;;6.25;100.00;100883.96;220893;1264;139398;-88
2024/01/26 11:54:47;;;;;;;23.00;9.50;;;;;;;6.31;100.00;100871.89;220360;1267;139600;-91
2024/01/26 11:59:48;;;;;;;24.90;9.70;;;;;;;6.40;100.00;100848.11;221890;1268;137717;-90
2024/01/26 12:04:48;;;;;;;33.70;10.80;;;;;;;6.45;100.00;100838.08;220531;1264;138819;-92
2024/01/26 12:09:52;;;;;;;48.20;12.60;;;;;;;6.51;100.00;100829.35;220963;1264;138413;-89
2024/01/26 12:14:53;;;;;;;31.00;12.10;;;;;;;6.59;100.00;100822.35;220855;1263;138682;-89
2024/01/26 12:19:55;;;;;;;33.90;10.00;;;;;;;6.62;100.00;100811.46;220648;1268;140021;-88
2024/01/26 12:24:55;;;;;;;29.10;9.60;;;;;;;6.65;100.00;100813.34;220939;1268;138810;-91
2024/01/26 12:29:55;;;;;;;28.60;10.70;;;;;;;6.73;100.00;100811.71;220343;1264;139690;-91
2024/01/26 12:34:58;;;;;;;29.50;11.60;;;;;;;6.75;100.00;100801.02;221820;1266;139039;-92
2024/01/26 12:39:59;;;;;;;41.00;11.60;;;;;;;6.79;100.00;100804.19;221629;1264;139603;-91
2024/01/26 12:44:59;;;;;;;31.30;10.10;;;;;;;6.84;100.00;100805.52;221061;1267;139869;-94
2024/01/26 12:50:00;;;;;;;35.10;10.80;;;;;;;6.84;100.00;100790.66;220272;1267;139936;-90
2024/01/26 12:55:01;;;;;;;38.40;11.20;;;;;;;6.83;100.00;100769.22;220988;1267;139048;-91
2024/01/26 13:00:03;;;;;;;34.40;11.60;;;;;;;6.85;100.00;100741.99;221010;1265;139818;-89
2024/01/26 13:05:05;;;;;;;32.40;9.90;;;;;;;6.91;100.00;100724.69;221135;1268;139115;-90
2024/01/26 13:10:05;;;;;;;37.90;11.50;;;;;;;6.96;100.00;100707.31;220738;1265;139673;-89
2024/01/26 13:15:10;;;;;;;34.20;11.80;;;;;;;6.97;100.00;100693.45;221142;1269;138737;-88
2024/01/26 13:20:13;;;;;;;34.60;10.60;;;;;;;6.99;100.00;100681.36;220545;1268;141061;-94
2024/01/26 13:25:15;;;;;;;37.00;11.60;;;;;;;6.99;100.00;100672.30;221202;1267;138886;-94
2024/01/26 13:30:15;;;;;;;34.40;11.90;;;;;;;6.99;100.00;100660.17;220592;1264;139963;-88
2024/01/26 13:35:16;;;;;;;29.60;10.70;;;;;;;6.99;100.00;100659.11;221227;1267;139678;-89
2024/01/26 13:40:17;;;;;;;33.30;10.10;;;;;;;7.00;100.00;100639.13;220800;1264;143111;-92
2024/01/26 13:45:17;;;;;;;29.20;12.40;;;;;;;7.00;100.00;100622.23;221169;1267;139209;-88
2024/01/26 13:50:18;;;;;;;36.20;12.80;;;;;;;7.02;100.00;100617.20;220457;1268;139871;-90
2024/01/26 13:55:18;;;;;;;30.50;11.30;;;;;;;7.00;100.00;100604.55;221030;1264;139564;-90
2024/01/26 14:00:19;;;;;;;26.40;10.30;;;;;;;6.96;100.00;100600.61;221950;1264;140124;-92
2024/01/26 14:05:19;;;;;;;33.20;11.40;;;;;;;6.91;100.00;100590.46;221117;1264;138866;-92
2024/01/26 14:10:20;;;;;;;28.10;10.80;;;;;;;6.84;100.00;100580.58;220599;1269;140423;-88
2024/01/26 14:15:21;;;;;;;36.00;11.70;;;;;;;6.78;100.00;100575.70;221029;1265;96652;-89
2024/01/26 14:20:21;;;;;;;28.30;11.30;;;;;;;6.72;100.00;100559.38;221734;1264;139955;-92
2024/01/26 14:25:23;;;;;;;33.10;11.10;;;;;;;6.62;100.00;100554.38;221988;1264;138755;-91
2024/01/26 14:30:26;;;;;;;32.80;12.20;;;;;;;6.47;100.00;100546.61;220648;1265;139910;-92
2024/01/26 14:35:26;;;;;;;33.00;12.10;;;;;;;6.36;100.00;100538.72;221241;1268;138810;-91
2024/01/26 14:40:27;;;;;;;33.60;14.60;;;;;;;6.21;100.00;100528.42;220707;1269;139727;-89
2024/01/26 14:45:28;;;;;;;29.60;11.80;;;;;;;6.12;100.00;100517.38;221086;1268;97854;-92
2024/01/26 14:50:28;;;;;;;27.10;12.30;;;;;;;6.04;100.00;100511.04;220593;1264;140052;-91
2024/01/26 14:55:29;;;;;;;34.40;13.60;;;;;;;5.96;100.00;100506.56;221057;1264;138837;-90
2024/01/26 15:00:30;;;;;;;32.70;13.40;;;;;;;5.90;100.00;100495.53;222041;1264;138637;-89
2024/01/26 15:05:30;;;;;;;32.60;13.40;;;;;;;5.86;100.00;100486.83;221248;1264;138793;-87
2024/01/26 15:10:31;;;;;;;42.10;18.10;;;;;;;5.83;100.00;100474.95;220651;1264;139731;-89
2024/01/26 15:15:31;;;;;;;37.40;15.10;;;;;;;5.76;100.00;100461.45;221222;1269;96610;-88
2024/01/26 15:20:32;;;;;;;29.30;13.70;;;;;;;5.73;100.00;100452.55;220641;1264;231352;-88
2024/01/26 15:25:32;;;;;;;36.10;14.80;;;;;;;5.70;100.00;100442.85;221282;1264;140010;-88
2024/01/26 15:30:33;;;;;;;28.60;13.70;;;;;;;5.69;100.00;100435.73;220751;1267;139793;-88
2024/01/26 15:35:34;;;;;;;31.30;13.30;;;;;;;5.70;100.00;100415.33;221070;1264;139362;-87
2024/01/26 15:40:35;;;;;;;30.40;13.70;;;;;;;5.69;100.00;100401.16;220833;1264;140081;-88
2024/01/26 15:45:35;;;;;;;31.80;13.30;;;;;;;5.67;100.00;100391.36;221383;1264;97198;-88
2024/01/26 15:50:36;;;;;;;27.10;12.50;;;;;;;5.64;100.00;100378.95;220830;1264;139438;-88
2024/01/26 15:55:36;;;;;;;30.90;14.00;;;;;;;5.64;100.00;100368.96;221898;1264;139861;-89
2024/01/26 16:00:37;;;;;;;30.30;13.30;;;;;;;5.63;100.00;100374.01;221811;1264;139899;-87
2024/01/26 16:05:37;;;;;;;27.30;13.20;;;;;;;5.62;100.00;100361.95;222866;1263;139304;-86
2024/01/26 16:10:41;;;;;;;30.00;14.40;;;;;;;5.61;100.00;100346.25;221694;1264;139666;-88
2024/01/26 16:15:43;;;;;;;34.60;15.70;;;;;;;5.59;100.00;100334.17;221241;1268;106894;-89
2024/01/26 16:20:43;;;;;;;31.40;14.20;;;;;;;5.57;100.00;100319.86;220417;1264;140396;-88
2024/01/26 16:25:44;;;;;;;33.10;13.30;;;;;;;5.55;100.00;100311.54;220922;1264;138918;-89
2024/01/26 16:30:45;;;;;;;28.70;13.10;;;;;;;5.53;100.00;100303.05;220149;1264;139885;-90
2024/01/26 16:35:45;;;;;;;33.50;13.60;;;;;;;5.53;100.00;100293.83;220747;1264;139865;-88
2024/01/26 16:40:46;;;;;;;30.60;12.40;;;;;;;5.51;100.00;100281.45;220640;1264;139638;-89
2024/01/26 16:45:46;;;;;;;26.00;11.30;;;;;;;5.50;100.00;100277.23;220989;1269;98111;-90
2024/01/26 16:50:47;;;;;;;25.90;12.80;;;;;;;5.48;100.00;100278.96;220327;1264;140279;-90
2024/01/26 16:55:47;;;;;;;37.50;15.00;;;;;;;5.45;100.00;100274.73;220892;1264;139777;-88
2024/01/26 17:00:48;;;;;;;30.50;14.00;;;;;;;5.43;100.00;100265.73;221015;1264;139659;-88
2024/01/26 17:05:51;;;;;;;32.10;12.80;;;;;;;5.43;100.00;100259.08;221171;1263;138994;-90
2024/01/26 17:10:52;;;;;;;35.20;15.00;;;;;;;5.42;100.00;100261.63;220478;1264;140059;-90
2024/01/26 17:15:53;;;;;;;37.80;16.50;;;;;;;5.41;100.00;100270.86;221238;1264;97222;-88
2024/01/26 17:20:53;;;;;;;35.50;16.50;;;;;;;5.43;100.00;100262.74;220519;1264;139890;-89
2024/01/26 17:25:55;;;;;;;34.40;15.50;;;;;;;5.45;100.00;100261.10;221039;1264;138626;-91
2024/01/26 17:30:56;;;;;;;39.70;17.00;;;;;;;5.50;100.00;100262.86;220603;1264;140175;-89
2024/01/26 17:35:56;;;;;;;40.80;18.80;;;;;;;5.55;100.00;100265.43;221029;1264;139669;-88
2024/01/26 17:40:57;;;;;;;34.10;17.20;;;;;;;5.60;100.00;100268.90;220443;1264;139682;-89
2024/01/26 17:45:57;;;;;;;38.50;18.20;;;;;;;5.64;100.00;100264.50;221196;1267;107611;-89
2024/01/26 17:50:58;;;;;;;37.50;17.80;;;;;;;5.68;100.00;100260.47;221667;1264;139620;-88
2024/01/26 17:56:00;;;;;;;29.20;15.30;;;;;;;5.77;100.00;100264.23;221995;1264;138820;-88
2024/01/26 18:01:01;;;;;;;28.20;12.50;;;;;;;5.85;100.00;100268.71;220941;1265;140204;-90
2024/01/26 18:06:01;;;;;;;30.10;12.60;;;;;;;5.95;100.00;100269.30;221070;1264;139326;-87
2024/01/26 18:11:04;;;;;;;33.30;14.50;;;;;;;6.04;100.00;100275.56;220492;1264;139595;-87
2024/01/26 18:16:05;;;;;;;27.80;12.80;;;;;;;6.11;100.00;100271.37;221059;1264;107757;-87
2024/01/26 18:21:05;;;;;;;27.60;12.60;;;;;;;6.18;100.00;100276.08;220469;1264;139727;-86
2024/01/26 18:26:13;;;;;;;23.70;12.90;;;;;;;6.23;100.00;100281.50;220853;1264;139603;-87
2024/01/26 18:31:13;;;;;;;19.40;10.40;;;;;;;6.30;100.00;100278.10;220325;1264;139907;-86
2024/01/26 18:36:14;;;;;;;20.30;10.30;;;;;;;6.37;100.00;100288.30;221033;1264;139286;-87
2024/01/26 18:41:26;;;;;;;31.50;17.20;;;;;;;6.44;100.00;100302.84;220354;1264;140032;-88
2024/01/26 18:46:26;;;;;;;21.40;9.90;;;;;;;6.48;100.00;100303.57;221266;1265;138781;-86
2024/01/26 18:51:28;;;;;;;20.70;9.50;;;;;;;6.52;100.00;100312.31;220683;1264;139470;-88
2024/01/26 18:56:29;;;;;;;12.60;5.90;;;;;;;6.51;100.00;100318.48;221058;1264;139333;-89
2024/01/26 19:01:30;;;;;;;10.20;3.80;;;;;;;6.47;100.00;100329.69;221013;1264;140041;-86
2024/01/26 19:06:31;;;;;;;9.40;2.80;;;;;;;6.41;100.00;100335.65;221113;1264;138882;-85
2024/01/26 19:11:31;;;;;;;6.30;2.00;;;;;;;6.36;100.00;100343.38;220510;1264;139364;-90
2024/01/26 19:16:33;;;;;;;9.80;2.70;;;;;;;6.32;100.00;100346.50;220941;1264;138743;-90
2024/01/26 19:21:33;;;;;;;8.10;1.90;;;;;;;6.31;100.00;100350.92;220737;1266;139368;-91
2024/01/26 19:26:34;;;;;;;7.00;2.60;;;;;;;6.30;100.00;100362.36;221121;1263;138739;-89
2024/01/26 19:31:36;;;;;;;4.80;1.70;;;;;;;6.30;100.00;100364.70;220468;1266;139776;-89
2024/01/26 19:36:36;;;;;;;7.80;2.10;;;;;;;6.32;100.00;100379.11;221892;1264;138980;-87
2024/01/26 19:41:37;;;;;;;7.10;2.40;;;;;;;6.33;100.00;100385.24;221684;1264;139095;-92
2024/01/26 19:46:37;;;;;;;5.10;1.90;;;;;;;6.35;100.00;100406.30;221418;1263;138534;-90
2024/01/26 19:51:38;;;;;;;11.60;2.50;;;;;;;6.35;100.00;100415.14;220798;1264;139551;-89
2024/01/26 19:56:39;;;;;;;6.00;1.60;;;;;;;6.34;100.00;100425.63;221454;1264;138640;-87
2024/01/26 20:01:42;;;;;;;7.00;2.30;;;;;;;6.33;100.00;100440.77;221132;1264;139709;-93
2024/01/26 20:06:42;;;;;;;5.80;1.90;;;;;;;6.32;100.00;100459.95;221561;1264;138500;-90
2024/01/26 20:11:49;;;;;;;9.80;1.60;;;;;;;6.27;100.00;100495.33;221655;1264;140832;-91
2024/01/26 20:16:49;;;;;;;9.40;2.40;;;;;;;6.18;100.00;100515.14;222056;1264;138480;-93
2024/01/26 20:21:50;;;;;;;10.80;2.00;;;;;;;6.10;100.00;100528.00;220909;1264;140007;-91
2024/01/26 20:26:50;;;;;;;7.50;1.80;;;;;;;6.04;100.00;100548.58;221628;1264;139239;-89
2024/01/26 20:31:51;;;;;;;10.30;2.60;;;;;;;6.00;100.00;100573.75;220724;1265;139285;-92
2024/01/26 20:36:52;;;;;;;9.40;2.30;;;;;;;5.96;100.00;100586.33;221818;1264;138625;-87
2024/01/26 20:41:54;;;;;;;8.40;2.90;;;;;;;5.92;100.00;100603.23;221655;1264;140233;-90
2024/01/26 20:46:54;;;;;;;7.60;2.20;;;;;;;5.88;100.00;100618.61;222006;1264;139112;-88
2024/01/26 20:51:54;;;;;;;9.60;1.90;;;;;;;5.86;100.00;100626.35;220895;1264;139488;-87
2024/01/26 20:56:55;;;;;;;9.40;1.90;;;;;;;5.82;100.00;100630.21;221118;1264;138306;-88
2024/01/26 21:01:56;;;;;;;9.60;2.20;;;;;;;5.77;100.00;100639.75;220736;1263;139334;-87
2024/01/26 21:06:56;;;;;;;11.80;2.90;;;;;;;5.75;100.00;100649.59;221237;1264;138546;-91
2024/01/26 21:11:56;;;;;;;15.90;3.00;;;;;;;5.69;100.00;100671.64;220608;1264;139995;-87
2024/01/26 21:16:58;;;;;;;12.70;2.70;;;;;;;5.64;100.00;100688.41;221176;1264;138665;-87
2024/01/26 21:21:59;;;;;;;13.50;2.80;;;;;;;5.61;100.00;100706.76;221684;1264;139367;-86
2024/01/26 21:27:00;;;;;;;17.10;4.50;;;;;;;5.57;100.00;100712.10;222189;1264;139068;-86
2024/01/26 21:32:00;;;;;;;12.90;3.30;;;;;;;5.54;100.00;100731.02;220840;1264;139641;-88
2024/01/26 21:37:01;;;;;;;22.20;6.00;;;;;;;5.49;100.00;100738.92;221269;1264;140052;-88
2024/01/26 21:42:01;;;;;;;21.00;3.30;;;;;;;5.43;100.00;100749.80;220694;1265;139954;-90
2024/01/26 21:47:02;;;;;;;17.50;3.10;;;;;;;5.38;100.00;100756.45;220998;1264;138791;-88
2024/01/26 21:52:03;;;;;;;19.00;2.50;;;;;;;5.34;100.00;100755.64;220861;1266;139752;-89
2024/01/26 21:57:04;;;;;;;17.80;6.20;;;;;;;5.31;100.00;100764.23;221385;1266;138535;-88
2024/01/26 22:02:04;;;;;;;13.60;3.30;;;;;;;5.28;100.00;100778.72;220638;1264;140097;-89
2024/01/26 22:07:05;;;;;;;18.30;2.80;;;;;;;5.24;100.00;100785.33;221191;1264;139184;-89
2024/01/26 22:12:06;;;;;;;20.50;3.40;;;;;;;5.21;100.00;100793.42;220741;1264;139674;-86
2024/01/26 22:17:06;;;;;;;17.00;2.60;;;;;;;5.19;100.00;100798.18;221149;1264;138844;-89
2024/01/26 22:22:07;;;;;;;20.80;3.00;;;;;;;5.18;100.00;100798.74;220618;1264;139898;-88
2024/01/26 22:27:07;;;;;;;14.00;2.50;;;;;;;5.16;100.00;100805.30;220766;1264;371643;-86